Monterey Park, CA (91754)

9:31 PM PDT on August 31, 2015 (GMT -0700)
Montebello, West side near Golf Course. | | Change Station
CLOSE
Current Station
Personal Weather Station
Location: Montebello, CA
Elevation: 231 ft
Nearby Weather Stations

Elev 231 ft 34.03 °N, 118.13 °W | Updated 3 seconds ago

Clear
Clear
78.0 °F
Feels Like 80 °F
N
0.0
Wind Variable Wind from SSE
Gusts 2.0 mph

Today
High -- | Low -- °F
--% Chance of Precip.
Yesterday
High -- | Low -- °F
Precip. -- in
6:25 AM 7:19 PM
Waning Gibbous, 91% visible
Pressure 29.87 in
Visibility 10.0 miles
Clouds Few 1300 ft
Heat Index 80 °F
Dew Point 62 °F
Humidity 58%
Rainfall 0.00 in
Snow Depth Not available.
UV 0 out of 12
Pollen 7.20 out of 12
Air Quality Not available.
Flu Activity Not available.
METAR KCQT 010347Z AUTO 00000KT 10SM FEW013 22/18 A2987 RMK AO2 SLP113 T02170178
Pressure 29.87 in
Visibility 10.0 miles
Clouds Few 1300 ft
Heat Index 80 °F
Dew Point 62 °F
Humidity 58%
Rainfall 0.00 in
Snow Depth Not available.
UV 0 out of 12
Pollen 7.20 out of 12
Air Quality Not available.
Flu Activity Not available.
METAR KCQT 010347Z AUTO 00000KT 10SM FEW013 22/18 A2987 RMK AO2 SLP113 T02170178

10-Day Weather Forecast

×

Almanac

Astronomy

Aug. 31, 2015 Rise Set
Actual Time
Civil Twilight
Nautical Twilight
Astronomical Twilight
Moon
Length of Visible Light
Length of Day
Tomorrow will be .
, % of the Moon is Illuminated

Today's Extremes

State Highs State Lows

Community

WunderPhotos

Upload Photos

1,851,479 photos uploaded!

WunderBlogs® & News

Nearby

Air Quality

  Air Quality AQ Index Pollutant
Not available.

Snow Depth

Station Depth Elevation

Earthquake Activity

City Distance Mag. Time & Date
Minimum magnitude displayed is 2.5.

Coastal Water Temperatures

Place Temperature

Stations

Nearby Weather Stations

Station Location Temp. Windchill Dew Point Humidity Wind Precip. Elev Updated Type